Time;durP1;ratioP1;P1;durP2;ratioP2;P2;SDS_P1;SDS_P2;PMS_P1;PMS_P2;Temp;Humidity;BMP_temperature;BMP_pressure;BME280_temperature;BME280_humidity;BME280_pressure;Samples;Min_cycle;Max_cycle;Signal;HPM_P1;HPM_P2
2022/01/12 00:02:04;;;;;;;460.27;78.57;;;3.40;99.90;;;;;;5103449;28;20028;-76
2022/01/12 00:04:30;;;;;;;391.65;76.07;;;3.40;99.90;;;;;;5088080;28;20053;-77
2022/01/12 00:06:55;;;;;;;452.83;79.95;;;3.40;99.90;;;;;;5096512;28;20051;-80
2022/01/12 00:09:21;;;;;;;440.08;77.72;;;3.40;99.90;;;;;;5092563;28;20032;-78
2022/01/12 00:11:46;;;;;;;443.55;78.05;;;3.40;99.90;;;;;;5092323;28;20427;-76
2022/01/12 00:14:12;;;;;;;397.33;71.30;;;3.40;99.90;;;;;;5091021;28;20079;-77
2022/01/12 00:16:39;;;;;;;450.42;75.68;;;3.40;99.90;;;;;;5089764;28;20085;-80
2022/01/12 00:19:04;;;;;;;406.67;69.90;;;3.50;99.90;;;;;;5090312;28;20051;-80
2022/01/12 00:21:30;;;;;;;459.60;76.32;;;3.40;99.90;;;;;;5088372;28;20040;-78
2022/01/12 00:23:55;;;;;;;451.40;79.68;;;3.50;99.90;;;;;;5090969;28;20433;-78
2022/01/12 00:26:38;;;;;;;378.92;65.88;;;3.40;99.90;;;;;;5105415;28;20547;-77
2022/01/12 00:34:32;;;;;;;392.00;63.13;;;3.40;99.90;;;;;;5096503;28;20055;-78
2022/01/12 00:36:57;;;;;;;402.83;65.13;;;3.40;99.90;;;;;;5088582;28;20741;-78
2022/01/12 00:39:23;;;;;;;416.38;67.68;;;3.40;99.90;;;;;;5089734;28;20401;-79
2022/01/12 00:41:50;;;;;;;432.52;67.10;;;3.50;99.90;;;;;;5097881;27;20036;-78
2022/01/12 00:44:32;;;;;;;368.63;64.07;;;3.50;99.90;;;;;;5088447;28;20453;-79
2022/01/12 00:46:58;;;;;;;370.45;63.33;;;3.50;99.90;;;;;;5087595;28;20048;-78
2022/01/12 00:49:24;;;;;;;424.70;67.60;;;3.50;99.90;;;;;;5096424;28;20043;-75
2022/01/12 00:51:54;;;;;;;408.52;64.57;;;3.50;99.90;;;;;;5089629;28;20040;-77
2022/01/12 00:54:20;;;;;;;413.60;67.45;;;3.50;99.90;;;;;;5088821;28;20114;-78
2022/01/12 00:56:45;;;;;;;313.42;59.22;;;3.50;99.90;;;;;;5088914;28;20424;-78
2022/01/12 00:59:11;;;;;;;356.55;61.15;;;3.50;99.90;;;;;;5083688;28;20038;-78
2022/01/12 01:01:36;;;;;;;384.80;61.90;;;3.50;99.90;;;;;;5095319;28;20059;-78
2022/01/12 01:04:02;;;;;;;318.65;59.25;;;3.50;99.90;;;;;;5095137;28;20401;-76
2022/01/12 01:06:28;;;;;;;384.88;62.35;;;3.50;99.90;;;;;;5092980;28;20028;-77
2022/01/12 01:08:54;;;;;;;374.25;60.83;;;3.50;99.90;;;;;;5096184;28;20041;-80
2022/01/12 01:11:20;;;;;;;373.85;59.40;;;3.50;99.90;;;;;;5105335;28;20395;-79
2022/01/12 01:13:57;;;;;;;334.05;57.53;;;3.50;99.90;;;;;;5097427;28;20612;-78
2022/01/12 01:16:41;;;;;;;308.40;56.30;;;3.50;99.90;;;;;;5096695;28;20043;-78
2022/01/12 01:27:25;;;;;;;402.45;62.47;;;3.50;99.90;;;;;;5089951;28;20406;-78
2022/01/12 01:29:53;;;;;;;418.60;62.78;;;3.50;99.90;;;;;;5070709;28;20035;-76
2022/01/12 01:32:18;;;;;;;379.85;60.78;;;3.50;99.90;;;;;;5087421;28;20031;-78
2022/01/12 01:34:47;;;;;;;452.92;66.35;;;3.50;99.90;;;;;;5075502;28;20498;-77
2022/01/12 01:37:13;;;;;;;390.88;59.35;;;3.50;99.90;;;;;;5074207;28;20040;-78
2022/01/12 01:39:39;;;;;;;537.17;76.55;;;3.50;99.90;;;;;;5098801;28;20043;-78
2022/01/12 01:42:15;;;;;;;549.88;75.28;;;3.50;99.90;;;;;;5097173;28;20024;-79
2022/01/12 01:55:27;;;;;;;539.08;72.57;;;3.50;99.90;;;;;;5091093;28;20063;-78
2022/01/12 01:57:53;;;;;;;725.80;89.53;;;3.50;99.90;;;;;;5088431;28;20444;-77
2022/01/12 02:00:23;;;;;;;723.58;87.45;;;3.60;99.90;;;;;;5086910;28;20036;-79
2022/01/12 02:02:50;;;;;;;605.25;78.88;;;3.50;99.90;;;;;;5086952;28;20040;-79
2022/01/12 02:05:16;;;;;;;749.08;88.53;;;3.60;99.90;;;;;;5087267;28;20044;-79
2022/01/12 02:07:42;;;;;;;609.38;80.18;;;3.60;99.90;;;;;;5087646;28;20043;-78
2022/01/12 02:10:09;;;;;;;777.92;89.43;;;3.50;99.90;;;;;;5088900;28;20048;-79
2022/01/12 02:12:34;;;;;;;776.33;91.40;;;3.60;99.90;;;;;;5089289;28;20036;-79
2022/01/12 02:15:01;;;;;;;897.17;96.65;;;3.60;99.90;;;;;;5070620;28;20046;-79
2022/01/12 02:17:33;;;;;;;760.45;90.35;;;3.50;99.90;;;;;;5089701;28;20028;-79
2022/01/12 02:36:25;;;;;;;601.38;84.05;;;3.70;99.90;;;;;;5093218;28;20155;-77
2022/01/12 02:41:38;;;;;;;630.80;74.55;;;3.70;99.90;;;;;;5086561;28;20123;-79
2022/01/12 02:54:41;;;;;;;991.38;94.93;;;3.70;99.90;;;;;;5085958;28;20139;-79
2022/01/12 02:57:07;;;;;;;865.72;87.93;;;3.70;99.90;;;;;;5080425;28;20127;-79
2022/01/12 02:59:33;;;;;;;750.10;82.43;;;3.70;99.90;;;;;;5100686;28;20402;-79
2022/01/12 03:04:56;;;;;;;616.58;71.35;;;3.70;99.90;;;;;;5086636;28;20101;-79
2022/01/12 03:07:23;;;;;;;535.35;67.05;;;3.70;99.90;;;;;;5069171;28;20040;-79
2022/01/12 03:09:48;;;;;;;774.08;81.20;;;3.70;99.90;;;;;;5084320;28;20112;-78
2022/01/12 03:12:15;;;;;;;921.05;88.53;;;3.70;99.90;;;;;;5105685;27;20047;-79
2022/01/12 03:14:40;;;;;;;954.85;88.97;;;3.70;99.90;;;;;;5069817;28;20094;-79
2022/01/12 03:17:06;;;;;;;954.35;92.68;;;3.70;99.90;;;;;;5090031;28;20035;-80
2022/01/12 03:19:31;;;;;;;846.30;86.13;;;3.70;99.90;;;;;;5079364;28;20445;-79
2022/01/12 03:21:57;;;;;;;947.65;91.78;;;3.70;99.90;;;;;;5091915;28;20032;-79
2022/01/12 03:24:23;;;;;;;996.15;93.38;;;3.70;99.90;;;;;;5096744;28;20044;-79
2022/01/12 03:26:48;;;;;;;981.50;90.30;;;3.70;99.90;;;;;;5099087;28;20040;-79
2022/01/12 03:29:16;;;;;;;783.45;80.18;;;3.70;99.90;;;;;;5080380;28;20406;-79
2022/01/12 03:31:41;;;;;;;707.38;77.72;;;3.70;99.90;;;;;;5090156;28;20036;-79
2022/01/12 03:34:30;;;;;;;656.92;72.80;;;3.80;99.90;;;;;;5090616;28;20471;-79
2022/01/12 03:39:39;;;;;;;730.90;76.63;;;3.80;99.90;;;;;;5078994;28;20102;-79
2022/01/12 03:42:05;;;;;;;864.58;81.47;;;3.80;99.90;;;;;;5100372;28;20037;-79
2022/01/12 03:44:30;;;;;;;887.13;81.00;;;3.80;99.90;;;;;;5097275;28;20403;-79
2022/01/12 03:46:56;;;;;;;605.90;68.13;;;3.80;99.90;;;;;;5080511;28;20078;-79
2022/01/12 03:49:22;;;;;;;901.88;81.13;;;3.80;99.90;;;;;;5065750;28;20040;-79
2022/01/12 03:51:49;;;;;;;741.70;75.85;;;3.80;99.90;;;;;;5075666;28;21994;-79
2022/01/12 03:54:14;;;;;;;646.65;69.88;;;3.80;99.90;;;;;;5094814;28;20089;-79
2022/01/12 03:56:40;;;;;;;672.03;75.45;;;3.80;99.90;;;;;;5105854;28;20035;-79
2022/01/12 03:59:06;;;;;;;729.20;72.70;;;3.90;99.90;;;;;;5106547;28;20036;-79
2022/01/12 04:01:34;;;;;;;655.40;69.65;;;3.90;99.90;;;;;;5109123;28;20036;-79
2022/01/12 04:04:03;;;;;;;693.13;76.95;;;3.90;99.90;;;;;;5092949;28;20044;-79
2022/01/12 04:09:14;;;;;;;617.72;66.05;;;3.90;99.90;;;;;;5084715;28;20047;-79
2022/01/12 04:11:40;;;;;;;629.28;72.00;;;3.90;99.90;;;;;;5099366;28;20039;-79
2022/01/12 04:14:06;;;;;;;612.08;67.28;;;4.00;99.90;;;;;;5089938;28;20478;-79
2022/01/12 04:16:32;;;;;;;511.67;62.08;;;3.90;99.90;;;;;;5087406;28;20028;-79
2022/01/12 04:18:58;;;;;;;577.47;68.20;;;3.90;99.90;;;;;;5089689;28;20548;-79
2022/01/12 04:21:28;;;;;;;538.60;63.92;;;3.90;99.90;;;;;;5083728;28;20040;-79
2022/01/12 04:23:57;;;;;;;532.47;60.13;;;3.90;99.90;;;;;;5089429;28;20479;-79
2022/01/12 04:26:24;;;;;;;483.40;58.92;;;3.90;99.90;;;;;;5082995;28;20174;-79
2022/01/12 04:28:50;;;;;;;391.65;53.50;;;3.90;99.90;;;;;;5087032;28;20123;-78
2022/01/12 04:31:15;;;;;;;406.48;54.92;;;3.90;99.90;;;;;;5095140;28;20597;-79
2022/01/12 04:33:43;;;;;;;546.92;62.25;;;3.90;99.90;;;;;;5098651;28;20051;-79
2022/01/12 04:36:09;;;;;;;498.25;57.55;;;4.00;99.90;;;;;;5087720;28;20052;-79
2022/01/12 04:38:38;;;;;;;485.10;57.15;;;4.00;99.90;;;;;;5085697;28;20058;-79
2022/01/12 04:41:06;;;;;;;529.80;59.50;;;3.90;99.90;;;;;;5091989;28;20029;-79
2022/01/12 04:43:33;;;;;;;463.42;56.90;;;4.00;99.90;;;;;;5092814;28;20232;-79
2022/01/12 04:46:20;;;;;;;411.98;52.40;;;4.00;99.90;;;;;;5096539;28;20510;-79
2022/01/12 04:48:52;;;;;;;622.10;67.47;;;4.00;99.90;;;;;;5084760;28;20104;-79
2022/01/12 04:51:18;;;;;;;289.08;43.67;;;4.00;99.90;;;;;;5093237;28;20035;-78
2022/01/12 04:53:44;;;;;;;313.90;46.78;;;4.00;99.90;;;;;;5087758;28;20035;-79
2022/01/12 04:56:10;;;;;;;366.17;47.90;;;4.00;99.90;;;;;;5105514;28;20028;-79
2022/01/12 04:58:36;;;;;;;397.92;50.28;;;4.10;99.90;;;;;;5099486;28;20490;-79
2022/01/12 05:01:09;;;;;;;358.10;50.03;;;4.10;99.90;;;;;;5087777;28;20118;-79
2022/01/12 05:13:58;;;;;;;498.00;52.47;;;3.90;99.90;;;;;;5086593;28;20131;-79
2022/01/12 05:16:24;;;;;;;363.40;48.25;;;3.90;99.90;;;;;;5087724;28;20055;-79
2022/01/12 05:18:52;;;;;;;364.15;47.55;;;3.80;99.90;;;;;;5089346;28;20105;-79
2022/01/12 05:21:22;;;;;;;325.55;45.05;;;3.70;99.90;;;;;;5090164;28;20035;-79
2022/01/12 05:23:49;;;;;;;325.45;43.75;;;3.70;99.90;;;;;;5081756;28;20044;-79
2022/01/12 05:26:15;;;;;;;325.42;41.28;;;3.70;99.90;;;;;;5089099;28;20082;-80
2022/01/12 05:28:41;;;;;;;288.92;38.90;;;3.70;99.90;;;;;;5093522;28;20046;-79
2022/01/12 05:31:09;;;;;;;355.20;42.78;;;3.60;99.90;;;;;;5087192;28;20047;-79
2022/01/12 05:33:34;;;;;;;317.60;41.20;;;3.50;99.90;;;;;;5069512;28;20414;-79
2022/01/12 05:36:03;;;;;;;377.40;44.63;;;3.50;99.90;;;;;;5082414;28;20032;-79
2022/01/12 05:38:30;;;;;;;384.33;43.28;;;3.50;99.90;;;;;;5088763;28;20142;-79
2022/01/12 05:40:59;;;;;;;377.33;43.38;;;3.50;99.90;;;;;;5080413;28;20043;-79
2022/01/12 05:43:28;;;;;;;270.35;38.75;;;3.50;99.90;;;;;;5095842;28;20067;-79
2022/01/12 05:45:56;;;;;;;385.42;45.28;;;3.30;99.90;;;;;;5085367;28;20040;-78
2022/01/12 05:51:07;;;;;;;333.63;42.85;;;3.20;99.90;;;;;;5088185;28;20096;-79
2022/01/12 05:53:32;;;;;;;372.70;43.63;;;3.10;99.90;;;;;;5085907;28;20048;-79
2022/01/12 05:55:58;;;;;;;344.58;42.13;;;3.10;99.90;;;;;;5091777;28;20118;-79
2022/01/12 05:58:24;;;;;;;329.98;40.38;;;3.00;99.90;;;;;;5096675;28;20036;-80
2022/01/12 06:00:49;;;;;;;424.42;45.17;;;3.00;99.90;;;;;;5088175;28;20522;-79
2022/01/12 06:03:15;;;;;;;316.63;41.40;;;3.00;99.90;;;;;;5075036;28;20040;-80
2022/01/12 06:05:40;;;;;;;501.45;48.20;;;2.90;99.90;;;;;;5092625;28;20044;-80
2022/01/12 06:08:06;;;;;;;779.53;55.88;;;2.90;99.90;;;;;;5087879;28;20157;-80
2022/01/12 06:10:31;;;;;;;682.25;52.08;;;2.80;99.90;;;;;;5097982;28;20449;-79
2022/01/12 06:12:57;;;;;;;763.90;54.47;;;2.70;99.90;;;;;;5088723;28;20032;-80
2022/01/12 06:15:22;;;;;;;803.45;54.72;;;2.70;99.90;;;;;;5078142;28;20044;-79
2022/01/12 06:17:48;;;;;;;593.63;48.80;;;2.60;99.90;;;;;;5073048;28;20039;-80
2022/01/12 06:20:14;;;;;;;520.35;49.85;;;2.60;99.90;;;;;;5061358;28;20240;-79
2022/01/12 06:22:39;;;;;;;407.17;47.15;;;2.70;99.90;;;;;;5078115;28;20038;-80
2022/01/12 06:25:09;;;;;;;366.42;45.08;;;2.80;99.90;;;;;;5088937;28;20040;-80
2022/01/12 06:27:36;;;;;;;333.58;44.45;;;2.90;99.90;;;;;;5086034;28;20060;-80
2022/01/12 06:30:14;;;;;;;375.77;46.50;;;3.00;99.90;;;;;;5086380;28;20039;-80
2022/01/12 06:32:40;;;;;;;396.70;48.05;;;3.00;99.90;;;;;;5088507;28;20043;-80
2022/01/12 06:35:06;;;;;;;399.13;46.50;;;3.00;99.90;;;;;;5089136;28;20032;-80
2022/01/12 06:37:32;;;;;;;352.98;44.25;;;3.00;99.90;;;;;;5081123;28;20062;-79
2022/01/12 06:39:57;;;;;;;417.95;46.70;;;3.00;99.90;;;;;;5088243;28;20476;-80
2022/01/12 06:42:25;;;;;;;426.95;48.33;;;2.90;99.90;;;;;;5094800;28;20028;-80
2022/01/12 06:44:51;;;;;;;442.90;46.92;;;3.00;99.90;;;;;;5065743;28;20465;-79
2022/01/12 06:47:18;;;;;;;374.48;43.72;;;2.90;99.90;;;;;;5079674;28;20123;-79
2022/01/12 06:49:44;;;;;;;418.95;45.58;;;2.80;99.90;;;;;;5092536;28;20036;-79
2022/01/12 06:52:10;;;;;;;505.67;49.10;;;2.80;99.90;;;;;;5099776;28;20032;-79
2022/01/12 06:54:35;;;;;;;669.05;57.20;;;2.70;99.90;;;;;;5100214;28;20037;-79
2022/01/12 06:57:01;;;;;;;806.65;60.28;;;2.70;99.90;;;;;;5087007;28;20079;-79
2022/01/12 06:59:27;;;;;;;962.03;65.70;;;2.60;99.90;;;;;;5071727;28;20036;-79
2022/01/12 07:01:52;;;;;;;827.88;56.42;;;2.60;99.90;;;;;;5092056;28;20036;-79
2022/01/12 07:04:20;;;;;;;582.70;48.15;;;2.50;99.90;;;;;;5075237;28;20036;-79
2022/01/12 07:06:45;;;;;;;934.63;62.53;;;2.50;99.90;;;;;;5088426;28;20043;-79
2022/01/12 07:09:11;;;;;;;1145.53;67.88;;;2.40;99.90;;;;;;5105957;28;20054;-79
2022/01/12 07:11:36;;;;;;;872.95;52.63;;;2.40;99.90;;;;;;5102059;28;20404;-79
2022/01/12 07:14:02;;;;;;;212.50;32.15;;;2.30;99.90;;;;;;5103671;28;20055;-79
2022/01/12 07:16:27;;;;;;;441.08;41.72;;;2.30;99.90;;;;;;5067783;28;20032;-79
2022/01/12 07:18:58;;;;;;;1043.22;60.17;;;2.30;99.90;;;;;;5083298;28;20482;-79
2022/01/12 07:21:23;;;;;;;953.30;55.13;;;2.20;99.90;;;;;;5077824;28;20525;-79
2022/01/12 07:23:54;;;;;;;934.95;55.03;;;2.20;99.90;;;;;;5092492;28;20310;-79
2022/01/12 07:26:23;;;;;;;809.95;48.03;;;2.30;99.90;;;;;;5092064;28;20044;-79
2022/01/12 07:28:49;;;;;;;636.40;39.60;;;2.20;99.90;;;;;;5089570;28;20123;-78
2022/01/12 07:31:15;;;;;;;479.00;34.63;;;2.30;99.90;;;;;;5091219;28;20035;-78
2022/01/12 07:33:41;;;;;;;507.23;34.67;;;2.30;99.90;;;;;;5097450;28;20047;-78
2022/01/12 07:36:06;;;;;;;566.30;37.47;;;2.20;99.90;;;;;;5091308;28;20036;-79
2022/01/12 07:38:32;;;;;;;829.95;56.10;;;2.20;99.90;;;;;;5091697;28;20479;-79
2022/01/12 07:40:58;;;;;;;667.45;47.95;;;2.10;99.90;;;;;;5086802;28;20032;-79
2022/01/12 07:43:23;;;;;;;570.20;42.40;;;2.10;99.90;;;;;;5077884;28;20039;-79
2022/01/12 07:45:49;;;;;;;711.60;46.08;;;2.30;99.90;;;;;;5104750;27;20407;-80
2022/01/12 07:48:15;;;;;;;452.27;37.70;;;2.30;99.90;;;;;;5088804;28;20028;-79
2022/01/12 07:50:41;;;;;;;602.70;47.65;;;2.30;99.90;;;;;;5088811;28;20051;-79
2022/01/12 07:53:07;;;;;;;703.38;54.70;;;2.50;99.90;;;;;;5090187;28;20437;-80
2022/01/12 07:55:32;;;;;;;512.40;44.63;;;2.60;99.90;;;;;;5073436;28;20039;-80
2022/01/12 07:57:58;;;;;;;432.35;40.50;;;2.70;99.90;;;;;;5091419;28;20051;-80
2022/01/12 08:00:25;;;;;;;379.98;41.50;;;2.70;99.90;;;;;;5083502;28;20040;-80
2022/01/12 08:02:50;;;;;;;374.77;39.00;;;2.70;99.90;;;;;;5080400;28;20046;-80
2022/01/12 08:05:17;;;;;;;509.67;47.20;;;2.70;99.90;;;;;;5098779;28;20032;-80
2022/01/12 08:07:43;;;;;;;423.23;42.60;;;2.60;99.90;;;;;;5072188;28;20132;-78
2022/01/12 08:10:09;;;;;;;388.23;40.65;;;2.70;99.90;;;;;;5077201;28;20122;-80
2022/01/12 08:12:35;;;;;;;396.40;42.40;;;2.70;99.90;;;;;;5083948;28;20086;-79
2022/01/12 08:15:04;;;;;;;404.02;42.83;;;2.80;99.90;;;;;;5073394;28;20375;-80
2022/01/12 08:17:30;;;;;;;298.50;37.97;;;2.70;99.90;;;;;;5072099;28;20028;-78
2022/01/12 08:19:57;;;;;;;307.88;38.05;;;2.80;99.90;;;;;;5084404;28;20449;-81
2022/01/12 08:22:22;;;;;;;357.92;42.75;;;2.80;99.90;;;;;;5080636;28;20038;-79
2022/01/12 08:24:48;;;;;;;326.58;38.47;;;2.90;99.90;;;;;;5071072;28;20048;-80
2022/01/12 08:27:13;;;;;;;363.25;41.83;;;3.00;99.90;;;;;;5077461;28;20047;-80
2022/01/12 08:29:40;;;;;;;350.63;40.80;;;3.00;99.90;;;;;;5083090;28;20056;-80
2022/01/12 08:32:06;;;;;;;390.77;43.80;;;3.10;99.90;;;;;;5083124;28;20470;-80
2022/01/12 08:34:32;;;;;;;383.05;42.22;;;3.10;99.90;;;;;;5083471;28;20134;-79
2022/01/12 08:36:57;;;;;;;358.35;41.50;;;3.10;99.90;;;;;;5104469;28;20055;-78
2022/01/12 08:39:23;;;;;;;401.70;45.13;;;3.20;99.90;;;;;;5080285;28;20036;-78
2022/01/12 08:41:49;;;;;;;365.27;41.10;;;3.10;99.90;;;;;;5081572;28;20036;-79
2022/01/12 08:44:14;;;;;;;359.50;41.05;;;3.10;99.90;;;;;;5096211;28;20081;-80
2022/01/12 08:46:41;;;;;;;402.42;44.72;;;3.20;99.90;;;;;;5101713;28;20505;-77
2022/01/12 08:49:07;;;;;;;404.73;45.05;;;3.30;99.90;;;;;;5082169;28;20111;-78
2022/01/12 08:51:34;;;;;;;487.05;50.88;;;3.40;99.90;;;;;;5074815;28;20139;-79
2022/01/12 08:53:59;;;;;;;442.67;44.75;;;3.50;99.90;;;;;;5096524;28;20052;-80
2022/01/12 08:56:25;;;;;;;474.60;49.10;;;3.60;99.90;;;;;;5098014;28;20037;-80
2022/01/12 08:58:51;;;;;;;405.38;43.40;;;3.60;99.90;;;;;;5097463;28;20478;-79
2022/01/12 09:01:17;;;;;;;461.48;47.03;;;3.60;99.90;;;;;;5075560;28;20041;-78
2022/01/12 09:03:43;;;;;;;447.55;47.28;;;3.70;99.90;;;;;;5089028;28;20439;-80
2022/01/12 09:06:08;;;;;;;383.60;42.45;;;3.80;99.90;;;;;;5087461;28;20435;-81
2022/01/12 09:08:37;;;;;;;407.13;45.53;;;3.70;99.90;;;;;;5083593;28;20036;-79
2022/01/12 09:11:03;;;;;;;382.42;43.75;;;3.80;99.90;;;;;;5088616;28;20040;-77
2022/01/12 09:13:29;;;;;;;349.55;43.55;;;3.80;99.90;;;;;;5082665;28;20043;-79
2022/01/12 09:15:54;;;;;;;358.13;44.80;;;3.90;99.90;;;;;;5062423;28;20391;-80
2022/01/12 09:18:20;;;;;;;342.55;43.25;;;3.90;99.90;;;;;;5084385;28;21867;-79
2022/01/12 09:20:47;;;;;;;375.95;47.90;;;3.90;99.90;;;;;;5088289;28;20036;-80
2022/01/12 09:23:13;;;;;;;386.85;44.78;;;4.00;99.90;;;;;;5101137;28;20401;-80
2022/01/12 09:25:39;;;;;;;367.85;42.58;;;4.00;99.90;;;;;;5100497;28;20040;-79
2022/01/12 09:28:06;;;;;;;355.20;41.75;;;4.00;99.90;;;;;;5076943;28;20119;-79
2022/01/12 09:30:32;;;;;;;377.17;44.15;;;4.00;99.90;;;;;;5081461;28;20172;-78
2022/01/12 09:32:59;;;;;;;362.10;42.65;;;4.10;99.90;;;;;;5085410;28;20048;-78
2022/01/12 09:35:25;;;;;;;324.15;39.47;;;4.10;99.90;;;;;;5070529;28;20154;-75
2022/01/12 09:37:51;;;;;;;303.58;37.55;;;4.10;99.90;;;;;;5072964;28;20044;-78
2022/01/12 09:40:16;;;;;;;317.67;36.13;;;4.10;99.90;;;;;;5076266;28;20428;-78
2022/01/12 09:42:44;;;;;;;298.70;36.53;;;4.20;99.90;;;;;;5064172;28;20040;-78
2022/01/12 09:45:15;;;;;;;332.67;39.53;;;4.20;99.90;;;;;;5085244;28;20043;-77
2022/01/12 09:47:42;;;;;;;325.42;36.83;;;4.30;99.90;;;;;;5071932;28;20071;-78
2022/01/12 09:50:09;;;;;;;321.98;34.15;;;4.30;99.90;;;;;;5069106;28;20044;-78
2022/01/12 09:52:34;;;;;;;302.50;33.50;;;4.30;99.90;;;;;;5068712;28;20028;-77
2022/01/12 09:55:00;;;;;;;297.42;33.28;;;4.30;99.90;;;;;;5051616;28;20094;-79
2022/01/12 09:57:25;;;;;;;427.60;40.53;;;4.30;99.90;;;;;;5092392;28;20036;-78
2022/01/12 09:59:51;;;;;;;338.15;36.83;;;4.40;99.90;;;;;;5091147;28;20357;-76
2022/01/12 10:02:18;;;;;;;357.67;38.60;;;4.40;99.90;;;;;;5089436;28;20380;-78
2022/01/12 10:04:44;;;;;;;285.13;32.85;;;4.50;99.90;;;;;;5085604;28;20059;-77
2022/01/12 10:07:11;;;;;;;264.50;32.10;;;4.50;99.90;;;;;;5087050;28;20043;-75
2022/01/12 10:09:43;;;;;;;274.17;32.80;;;4.50;99.90;;;;;;5087002;28;20509;-79
2022/01/12 10:12:13;;;;;;;249.88;29.88;;;4.50;99.90;;;;;;5088706;28;20046;-77
2022/01/12 10:14:55;;;;;;;179.38;27.23;;;4.60;99.90;;;;;;5088077;28;20076;-76
2022/01/12 10:17:36;;;;;;;189.32;28.58;;;4.60;99.90;;;;;;5069059;28;20040;-79
2022/01/12 10:20:09;;;;;;;223.25;30.00;;;4.50;99.90;;;;;;5101203;28;20038;-76
2022/01/12 10:22:35;;;;;;;197.10;28.75;;;4.60;99.90;;;;;;5078425;28;20041;-78
2022/01/12 10:25:12;;;;;;;202.85;28.83;;;4.60;99.90;;;;;;5094273;28;20412;-76
2022/01/12 10:27:41;;;;;;;178.82;29.20;;;4.60;99.90;;;;;;5097807;28;20475;-78
2022/01/12 10:30:07;;;;;;;197.32;32.47;;;4.70;99.90;;;;;;5087900;28;20123;-77
2022/01/12 10:32:33;;;;;;;217.90;32.67;;;4.60;99.90;;;;;;5089186;28;20086;-76
2022/01/12 10:35:00;;;;;;;213.48;33.97;;;4.70;99.90;;;;;;5089352;28;19959;-77
2022/01/12 10:37:26;;;;;;;223.60;33.83;;;4.70;99.90;;;;;;5065914;28;20119;-78
2022/01/12 10:39:55;;;;;;;213.85;33.42;;;4.70;99.90;;;;;;5074325;28;20063;-79
2022/01/12 10:42:23;;;;;;;223.63;31.80;;;4.70;99.90;;;;;;5086867;28;20127;-78
2022/01/12 10:44:51;;;;;;;224.15;33.28;;;4.80;99.90;;;;;;5074874;28;20041;-78
2022/01/12 10:47:21;;;;;;;231.10;33.55;;;4.80;99.90;;;;;;5073589;28;20040;-77
2022/01/12 10:49:52;;;;;;;207.75;33.28;;;4.80;99.90;;;;;;5060865;28;20360;-77
2022/01/12 10:52:18;;;;;;;199.83;31.57;;;4.90;99.90;;;;;;5079305;28;20402;-78
2022/01/12 10:54:56;;;;;;;225.18;32.25;;;4.90;99.90;;;;;;5095749;28;20304;-78
2022/01/12 10:57:32;;;;;;;211.80;34.40;;;5.00;99.90;;;;;;5088739;28;20032;-78
2022/01/12 11:00:18;;;;;;;186.60;30.85;;;5.00;99.90;;;;;;5087187;28;20139;-79
2022/01/12 11:02:46;;;;;;;180.00;31.65;;;5.00;99.90;;;;;;5087875;28;20047;-77
2022/01/12 11:05:13;;;;;;;195.68;32.92;;;5.00;99.90;;;;;;5087438;28;20036;-78
2022/01/12 11:07:38;;;;;;;181.63;30.63;;;5.00;99.90;;;;;;5081140;28;20139;-77
2022/01/12 11:10:07;;;;;;;157.48;30.40;;;5.10;99.90;;;;;;5074746;28;20125;-78
2022/01/12 11:12:35;;;;;;;166.20;30.08;;;5.10;99.90;;;;;;5079224;28;20089;-75
2022/01/12 11:15:09;;;;;;;145.25;28.55;;;5.20;99.90;;;;;;5070543;28;20044;-78
2022/01/12 11:17:37;;;;;;;154.35;28.00;;;5.20;99.90;;;;;;5079107;28;20115;-78
2022/01/12 11:20:17;;;;;;;173.32;32.45;;;5.20;99.90;;;;;;5085413;28;20047;-77
2022/01/12 11:22:58;;;;;;;171.60;29.92;;;5.10;99.90;;;;;;5070982;28;20098;-76
2022/01/12 11:25:51;;;;;;;156.73;30.15;;;5.10;99.90;;;;;;5088819;28;20600;-76
2022/01/12 11:28:18;;;;;;;204.50;32.08;;;5.10;99.90;;;;;;5083295;28;20052;-77
2022/01/12 11:31:04;;;;;;;308.38;38.38;;;5.00;99.90;;;;;;5086088;28;20138;-76
2022/01/12 11:33:29;;;;;;;319.70;35.97;;;4.80;99.90;;;;;;5087263;28;20044;-78
2022/01/12 11:35:59;;;;;;;248.77;29.15;;;4.80;99.90;;;;;;5088647;28;20040;-77
2022/01/12 11:38:30;;;;;;;281.85;32.47;;;4.90;99.90;;;;;;5071601;28;20394;-74
2022/01/12 11:41:12;;;;;;;313.38;34.17;;;4.90;99.90;;;;;;5070246;28;20049;-77
2022/01/12 11:43:46;;;;;;;294.55;23.48;;;4.90;99.90;;;;;;5075213;28;20376;-77
2022/01/12 11:46:18;;;;;;;223.88;19.48;;;4.80;99.90;;;;;;5092533;28;20487;-75
2022/01/12 11:48:46;;;;;;;244.80;21.47;;;4.80;99.90;;;;;;5096802;28;20048;-75
2022/01/12 11:51:15;;;;;;;226.27;23.50;;;4.70;99.90;;;;;;5098967;28;20147;-76
2022/01/12 11:53:54;;;;;;;264.50;25.52;;;4.60;99.90;;;;;;5086738;28;20135;-77
2022/01/12 11:56:25;;;;;;;211.30;22.38;;;4.70;99.90;;;;;;5080502;28;20043;-76
2022/01/12 11:59:06;;;;;;;243.43;22.38;;;4.70;99.90;;;;;;5064536;28;20032;-76
2022/01/12 12:01:41;;;;;;;259.70;23.27;;;4.80;99.90;;;;;;5091222;28;20028;-79
2022/01/12 12:04:08;;;;;;;146.38;15.68;;;4.80;99.90;;;;;;5097579;28;20036;-77
2022/01/12 12:06:34;;;;;;;163.70;18.13;;;4.80;99.90;;;;;;5069823;28;20036;-77
2022/01/12 12:09:10;;;;;;;237.00;21.85;;;4.70;99.90;;;;;;5071146;28;20037;-76
2022/01/12 12:11:36;;;;;;;172.85;18.10;;;4.70;99.90;;;;;;5089419;28;20036;-78
2022/01/12 12:14:07;;;;;;;170.25;19.20;;;4.80;99.90;;;;;;5099876;27;20399;-77
2022/01/12 12:16:36;;;;;;;199.65;19.73;;;4.90;99.90;;;;;;5094305;28;20043;-77
2022/01/12 12:19:04;;;;;;;332.13;27.70;;;5.00;99.90;;;;;;5068588;28;20043;-78
2022/01/12 12:21:32;;;;;;;200.48;21.42;;;4.90;99.90;;;;;;5084500;28;20024;-77
2022/01/12 12:24:09;;;;;;;212.98;23.95;;;5.00;99.90;;;;;;5080553;28;20040;-76
2022/01/12 12:26:41;;;;;;;245.75;25.13;;;4.90;99.90;;;;;;5096388;28;20046;-76
2022/01/12 12:29:07;;;;;;;146.75;19.80;;;4.90;99.90;;;;;;5084278;28;20044;-75
2022/01/12 12:31:33;;;;;;;179.98;20.20;;;4.90;99.90;;;;;;5099671;28;20127;-74
2022/01/12 12:34:00;;;;;;;207.90;22.55;;;4.90;99.90;;;;;;5092298;28;20041;-74
2022/01/12 12:36:26;;;;;;;175.35;20.17;;;4.80;99.90;;;;;;5084553;28;20043;-76
2022/01/12 12:38:51;;;;;;;252.23;23.83;;;4.80;99.90;;;;;;5091140;28;20040;-75
2022/01/12 12:41:17;;;;;;;260.80;24.70;;;4.80;99.90;;;;;;5091983;28;20375;-74
2022/01/12 12:43:45;;;;;;;157.38;20.02;;;4.90;99.90;;;;;;5083067;28;20518;-76
2022/01/12 12:46:13;;;;;;;211.52;23.65;;;4.90;99.90;;;;;;5090394;28;20094;-78
2022/01/12 12:48:40;;;;;;;111.15;13.52;;;4.90;99.90;;;;;;5081755;28;20068;-75
2022/01/12 12:51:13;;;;;;;184.02;18.73;;;4.90;99.90;;;;;;5090030;28;20127;-75
2022/01/12 12:53:41;;;;;;;144.88;18.35;;;4.90;99.90;;;;;;5088681;28;20067;-77
2022/01/12 12:56:12;;;;;;;139.25;17.50;;;4.80;99.90;;;;;;5085540;28;20036;-77
2022/01/12 12:58:38;;;;;;;207.27;19.60;;;4.80;99.90;;;;;;5085916;28;20043;-75
2022/01/12 13:01:09;;;;;;;203.20;22.60;;;4.90;99.90;;;;;;5093125;28;20375;-75
2022/01/12 13:03:36;;;;;;;206.73;19.45;;;4.90;99.90;;;;;;5085063;28;20036;-76
2022/01/12 13:06:02;;;;;;;173.02;20.63;;;4.90;99.90;;;;;;5089291;28;20036;-77
2022/01/12 13:08:28;;;;;;;115.57;16.13;;;4.90;99.90;;;;;;5088871;28;20487;-78
2022/01/12 13:10:53;;;;;;;136.43;17.73;;;4.90;99.90;;;;;;5089102;28;20040;-76
2022/01/12 13:13:19;;;;;;;144.95;17.20;;;5.00;99.90;;;;;;5096182;28;20040;-78
2022/01/12 13:15:46;;;;;;;152.50;17.40;;;5.00;99.90;;;;;;5071863;28;20128;-75
2022/01/12 13:18:20;;;;;;;168.07;19.60;;;5.00;99.90;;;;;;5089231;28;20130;-77
2022/01/12 13:21:07;;;;;;;177.52;21.80;;;5.10;99.90;;;;;;5088247;28;20055;-77
2022/01/12 13:23:39;;;;;;;141.07;19.13;;;5.10;99.90;;;;;;5088390;28;20062;-74
2022/01/12 13:26:06;;;;;;;176.32;19.40;;;5.10;99.90;;;;;;5087716;28;20530;-73
2022/01/12 13:28:35;;;;;;;202.30;22.27;;;5.10;99.90;;;;;;5093424;28;20244;-75
2022/01/12 13:31:03;;;;;;;123.88;17.48;;;5.20;99.90;;;;;;5088642;28;20081;-76
2022/01/12 13:33:32;;;;;;;149.57;20.08;;;5.20;99.90;;;;;;5088246;28;20052;-76
2022/01/12 13:36:09;;;;;;;185.65;21.70;;;5.20;99.90;;;;;;5089233;28;20035;-77
2022/01/12 13:38:35;;;;;;;198.15;21.27;;;5.20;99.90;;;;;;5088218;28;20048;-77
2022/01/12 13:41:22;;;;;;;258.88;24.35;;;5.20;99.90;;;;;;5088172;28;20043;-77
2022/01/12 13:43:59;;;;;;;169.50;19.58;;;5.20;99.90;;;;;;5085954;28;20044;-76
2022/01/12 13:46:43;;;;;;;192.00;22.67;;;5.30;99.90;;;;;;5069525;28;20121;-77